Time;durP1;ratioP1;P1;durP2;ratioP2;P2;SDS_P1;SDS_P2;PMS_P1;PMS_P2;Temp;Humidity;BMP_temperature;BMP_pressure;BME280_temperature;BME280_humidity;BME280_pressure;Samples;Min_cycle;Max_cycle;Signal;HPM_P1;HPM_P2
2023/06/08 00:02:23;;;;;;;11.98;10.75;;;;;;;18.29;93.59;99640.81;5054098;28;20114;-76
2023/06/08 00:04:49;;;;;;;12.60;11.40;;;;;;;18.15;93.71;99614.66;5055997;28;20112;-76
2023/06/08 00:07:15;;;;;;;11.27;10.18;;;;;;;18.08;94.33;99609.06;5055432;28;20107;-76
2023/06/08 00:09:41;;;;;;;11.40;10.30;;;;;;;18.25;94.58;99634.09;5055755;28;20032;-76
2023/06/08 00:12:07;;;;;;;12.82;11.32;;;;;;;18.08;94.87;99616.13;5055359;28;20025;-76
2023/06/08 00:14:35;;;;;;;12.18;11.02;;;;;;;18.16;95.36;99634.78;5055440;28;20090;-76
2023/06/08 00:17:03;;;;;;;12.13;10.98;;;;;;;18.14;94.56;99628.81;5055473;28;20033;-76
2023/06/08 00:19:29;;;;;;;12.50;11.30;;;;;;;18.10;94.83;99627.38;5055517;28;20052;-75
2023/06/08 00:21:56;;;;;;;11.82;10.73;;;;;;;17.96;94.91;99607.38;5055841;28;20469;-76
2023/06/08 00:24:22;;;;;;;13.35;12.10;;;;;;;18.07;95.58;99633.72;5055285;28;20029;-76
2023/06/08 00:26:48;;;;;;;12.80;11.60;;;;;;;17.86;95.48;99594.06;5055321;28;20090;-76
2023/06/08 00:29:13;;;;;;;12.25;11.10;;;;;;;17.91;95.19;99601.63;5055355;28;20029;-76
2023/06/08 00:31:39;;;;;;;13.35;11.95;;;;;;;18.03;95.54;99632.28;5055411;28;20079;-76
2023/06/08 00:34:04;;;;;;;12.63;11.32;;;;;;;17.95;95.05;99605.69;5054942;28;20481;-76
2023/06/08 00:36:30;;;;;;;13.43;11.95;;;;;;;18.05;95.28;99625.09;5055338;28;20033;-76
2023/06/08 00:38:55;;;;;;;12.70;11.40;;;;;;;17.85;95.56;99599.47;5055036;28;20112;-76
2023/06/08 00:41:20;;;;;;;12.38;10.93;;;;;;;17.97;94.95;99616.13;5055063;28;20081;-76
2023/06/08 00:43:46;;;;;;;13.55;12.25;;;;;;;17.87;95.46;99597.56;5055003;28;20119;-76
2023/06/08 00:46:13;;;;;;;13.07;11.88;;;;;;;17.90;96.24;99629.75;5054639;28;20373;-76
2023/06/08 00:48:40;;;;;;;12.38;11.18;;;;;;;17.89;95.68;99635.97;5055066;28;20120;-76
2023/06/08 00:51:06;;;;;;;12.45;11.15;;;;;;;17.82;95.46;99626.03;5054715;28;20424;-76
2023/06/08 00:53:32;;;;;;;12.38;11.18;;;;;;;17.90;94.97;99635.03;5054874;28;20028;-76
2023/06/08 00:55:57;;;;;;;12.98;11.75;;;;;;;17.90;95.49;99637.66;5054763;28;20104;-76
2023/06/08 00:58:24;;;;;;;12.73;11.52;;;;;;;17.66;95.96;99616.66;5054809;28;20119;-76
2023/06/08 01:00:50;;;;;;;13.40;12.00;;;;;;;17.79;96.00;99642.94;5055043;28;20028;-76
2023/06/08 01:03:15;;;;;;;13.38;12.15;;;;;;;17.75;96.62;99638.84;5054641;28;20029;-76
2023/06/08 01:05:44;;;;;;;13.75;12.13;;;;;;;17.73;96.77;99632.81;5054757;28;20500;-76
2023/06/08 01:08:31;;;;;;;12.70;11.60;;;;;;;17.59;96.32;99615.44;5054467;28;20037;-76
2023/06/08 01:11:29;;;;;;;13.73;12.43;;;;;;;17.70;97.00;99635.69;5054704;28;20080;-76
2023/06/08 01:14:17;;;;;;;13.57;12.35;;;;;;;17.53;97.13;99608.03;5053837;28;20507;-76
2023/06/08 01:16:49;;;;;;;13.45;12.27;;;;;;;17.60;97.64;99630.28;5054478;28;20064;-76
2023/06/08 01:19:28;;;;;;;13.48;12.27;;;;;;;17.56;97.81;99617.47;5054152;28;20029;-76
2023/06/08 01:21:56;;;;;;;12.43;11.23;;;;;;;17.62;97.25;99630.19;5054514;28;20043;-76
2023/06/08 01:24:24;;;;;;;13.18;11.98;;;;;;;17.62;97.18;99624.91;5054015;28;20641;-76
2023/06/08 01:26:50;;;;;;;11.98;10.88;;;;;;;17.61;96.70;99629.34;5054397;28;20048;-76
2023/06/08 01:29:17;;;;;;;13.27;12.05;;;;;;;17.54;97.88;99614.13;5053961;28;20033;-76
2023/06/08 01:31:43;;;;;;;13.60;12.20;;;;;;;17.29;98.32;99583.53;5054636;28;20029;-76
2023/06/08 01:34:10;;;;;;;13.40;12.00;;;;;;;17.49;98.64;99616.22;5053943;28;20049;-76
2023/06/08 01:36:48;;;;;;;15.00;11.80;;;;;;;17.45;98.37;99618.28;5054149;28;20025;-76
2023/06/08 01:39:25;;;;;;;13.55;12.25;;;;;;;17.45;98.21;99618.28;5053679;28;20132;-76
2023/06/08 01:41:55;;;;;;;12.55;10.70;;;;;;;17.43;98.03;99618.38;5054114;28;20108;-76
2023/06/08 01:44:22;;;;;;;12.13;11.02;;;;;;;17.32;97.65;99602.59;5053659;28;20033;-76
2023/06/08 01:46:59;;;;;;;12.75;11.55;;;;;;;17.29;97.20;99602.81;5054021;28;20021;-76
2023/06/08 01:49:27;;;;;;;13.75;12.55;;;;;;;17.33;97.25;99616.56;5053721;28;20033;-76
2023/06/08 01:51:53;;;;;;;13.07;11.88;;;;;;;17.27;97.17;99620.50;5053759;28;20029;-76
2023/06/08 01:54:21;;;;;;;14.27;12.88;;;;;;;17.25;97.27;99621.56;5053514;28;20032;-76
2023/06/08 01:56:47;;;;;;;13.30;12.07;;;;;;;17.21;97.49;99627.06;5053900;28;20108;-75
2023/06/08 01:59:12;;;;;;;13.55;12.35;;;;;;;17.02;97.52;99603.03;5053409;28;20446;-76
2023/06/08 02:01:37;;;;;;;12.25;11.15;;;;;;;17.14;97.53;99625.81;5053746;28;20021;-76
2023/06/08 02:04:03;;;;;;;12.35;11.30;;;;;;;16.92;97.14;99597.63;5053645;28;20429;-76
2023/06/08 02:06:28;;;;;;;12.85;11.70;;;;;;;16.96;96.92;99616.66;5053080;28;20572;-76
2023/06/08 02:08:54;;;;;;;13.07;11.77;;;;;;;17.02;97.17;99629.38;5053390;28;20025;-76
2023/06/08 02:11:22;;;;;;;13.48;12.18;;;;;;;16.77;97.07;99597.91;5053367;28;20048;-76
2023/06/08 02:13:48;;;;;;;14.20;12.73;;;;;;;16.82;97.55;99607.16;5053558;28;20389;-76
2023/06/08 02:16:13;;;;;;;14.10;12.70;;;;;;;16.85;97.66;99621.88;5053132;28;20029;-76
2023/06/08 02:18:41;;;;;;;13.38;12.05;;;;;;;16.85;98.51;99633.22;5053623;28;20035;-76
2023/06/08 02:21:08;;;;;;;13.80;12.50;;;;;;;16.66;98.58;99612.66;5053301;28;20381;-75
2023/06/08 02:23:33;;;;;;;12.75;11.55;;;;;;;16.68;98.34;99616.00;5052963;28;20040;-76
2023/06/08 02:25:59;;;;;;;13.88;12.40;;;;;;;16.58;98.23;99604.50;5052095;28;20033;-76
2023/06/08 02:28:24;;;;;;;12.55;11.50;;;;;;;16.63;98.10;99620.75;5052967;28;20533;-76
2023/06/08 02:30:50;;;;;;;13.85;12.55;;;;;;;16.70;97.90;99632.53;5053125;28;20025;-76
2023/06/08 02:33:15;;;;;;;15.00;12.93;;;;;;;16.55;98.47;99620.47;5052749;28;20052;-76
2023/06/08 02:35:41;;;;;;;14.07;12.75;;;;;;;16.39;99.18;99604.13;5053028;28;20025;-76
2023/06/08 02:38:06;;;;;;;13.35;12.15;;;;;;;16.39;98.91;99606.75;5052837;28;20029;-76
2023/06/08 02:40:32;;;;;;;13.73;12.32;;;;;;;16.41;99.25;99610.13;5052520;28;20481;-76
2023/06/08 02:42:58;;;;;;;13.90;12.15;;;;;;;16.45;98.83;99627.34;5052936;28;20033;-76
2023/06/08 02:45:23;;;;;;;13.95;12.68;;;;;;;16.27;98.57;99600.59;5052505;28;20380;-76
2023/06/08 02:47:49;;;;;;;15.02;13.70;;;;;;;16.34;98.34;99616.75;5053042;28;20040;-76
2023/06/08 02:50:14;;;;;;;16.10;14.60;;;;;;;16.42;98.63;99632.81;5052510;28;20033;-75
2023/06/08 02:52:40;;;;;;;15.32;13.98;;;;;;;16.12;99.06;99597.25;5052432;28;20656;-75
2023/06/08 02:55:05;;;;;;;14.55;13.13;;;;;;;16.36;99.12;99638.53;5052648;28;20032;-75
2023/06/08 02:57:32;;;;;;;14.10;12.80;;;;;;;16.25;98.98;99620.88;5052302;28;20527;-75
2023/06/08 02:59:58;;;;;;;15.10;13.52;;;;;;;16.20;98.83;99610.69;5052325;28;20464;-75
2023/06/08 03:02:24;;;;;;;14.55;13.25;;;;;;;16.41;99.07;99645.13;5052142;28;20033;-75
2023/06/08 03:04:52;;;;;;;15.45;13.60;;;;;;;16.37;98.79;99634.94;5052295;28;20035;-75
2023/06/08 03:07:17;;;;;;;15.02;13.57;;;;;;;16.15;98.75;99597.03;5051944;28;20032;-75
2023/06/08 03:09:43;;;;;;;14.68;13.43;;;;;;;16.32;98.96;99627.38;5052192;28;20083;-75
2023/06/08 03:12:11;;;;;;;15.75;14.13;;;;;;;16.30;99.44;99626.63;5052297;28;20029;-75
2023/06/08 03:14:38;;;;;;;14.82;13.27;;;;;;;16.30;99.18;99621.38;5052183;28;20028;-75
2023/06/08 03:17:04;;;;;;;14.50;13.13;;;;;;;16.52;98.87;99648.78;5052187;28;20468;-75
2023/06/08 03:19:32;;;;;;;16.40;14.77;;;;;;;16.54;99.27;99650.34;5051793;28;20051;-75
2023/06/08 03:22:04;;;;;;;16.83;15.27;;;;;;;16.37;99.76;99630.53;5051829;28;20025;-75
2023/06/08 03:24:31;;;;;;;;;;;;;;;16.48;99.83;99655.22;5052445;28;20103;-75
2023/06/08 03:27:00;;;;;;;15.60;14.10;;;;;;;16.34;99.62;99624.63;5052112;28;19955;-75
2023/06/08 03:29:26;;;;;;;15.38;13.98;;;;;;;16.51;99.62;99649.72;5051892;28;20036;-75
2023/06/08 03:31:52;;;;;;;16.13;14.55;;;;;;;16.57;100.00;99654.56;5052359;28;20561;-75
2023/06/08 03:34:18;;;;;;;14.65;13.35;;;;;;;16.48;99.70;99635.03;5051826;28;20076;-75
2023/06/08 03:36:44;;;;;;;14.43;12.98;;;;;;;16.51;99.66;99628.69;5051962;28;20527;-76
2023/06/08 03:39:10;;;;;;;15.60;14.13;;;;;;;16.70;99.95;99658.00;5051672;28;20431;-75
2023/06/08 03:41:35;;;;;;;15.15;13.85;;;;;;;16.59;99.90;99636.88;5051695;28;20021;-75
2023/06/08 03:44:01;;;;;;;17.52;16.02;;;;;;;16.59;100.00;99634.25;5051663;28;20057;-75
2023/06/08 03:46:27;;;;;;;16.10;14.52;;;;;;;16.76;100.00;99649.69;5051509;28;20024;-75
2023/06/08 03:48:52;;;;;;;15.73;14.10;;;;;;;16.86;99.76;99653.34;5051570;28;20060;-75
2023/06/08 03:51:20;;;;;;;15.55;14.13;;;;;;;16.82;100.00;99638.72;5051637;28;20021;-75
2023/06/08 03:53:46;;;;;;;15.80;14.40;;;;;;;16.98;100.00;99656.00;5051809;28;20051;-75
2023/06/08 03:56:11;;;;;;;15.23;13.73;;;;;;;17.06;99.98;99651.03;5051794;28;20033;-75
2023/06/08 03:58:37;;;;;;;15.50;13.85;;;;;;;17.13;100.00;99644.38;5051293;28;20028;-75
2023/06/08 04:01:02;;;;;;;16.20;14.77;;;;;;;17.18;99.77;99644.88;5051877;28;20021;-75
2023/06/08 04:03:27;;;;;;;15.85;14.35;;;;;;;17.32;100.00;99654.38;5051193;28;20083;-75
2023/06/08 04:05:53;;;;;;;17.25;15.55;;;;;;;17.34;99.80;99637.50;5051733;28;20021;-75
2023/06/08 04:08:18;;;;;;;15.77;14.18;;;;;;;17.46;99.56;99633.13;5051282;28;20108;-75
2023/06/08 04:10:44;;;;;;;16.10;14.60;;;;;;;17.84;98.81;99653.13;5051561;28;20109;-75
2023/06/08 04:13:10;;;;;;;15.07;13.57;;;;;;;18.04;98.34;99628.69;5051588;28;20051;-75
2023/06/08 04:15:35;;;;;;;15.63;14.23;;;;;;;18.41;96.95;99631.06;5051197;28;20103;-75
2023/06/08 04:18:05;;;;;;;16.17;14.57;;;;;;;19.05;95.29;99662.88;5051375;28;20029;-75
2023/06/08 04:20:31;;;;;;;16.58;14.05;;;;;;;19.58;91.93;99641.72;5051302;28;20035;-75
2023/06/08 04:22:57;;;;;;;14.68;13.13;;;;;;;20.73;87.53;99665.38;5051526;28;20033;-76
2023/06/08 04:25:25;;;;;;;13.80;12.63;;;;;;;22.07;81.73;99663.69;5051358;28;20025;-76
2023/06/08 04:27:53;;;;;;;14.43;13.18;;;;;;;23.16;76.64;99639.94;5051426;28;20063;-76
2023/06/08 04:30:19;;;;;;;14.40;13.02;;;;;;;23.97;73.80;99653.03;5051119;28;20039;-76
2023/06/08 04:32:45;;;;;;;14.52;13.23;;;;;;;23.93;73.12;99643.69;5050967;28;20028;-76
2023/06/08 04:35:11;;;;;;;15.38;13.98;;;;;;;23.62;73.99;99646.78;5051813;28;20060;-76
2023/06/08 04:37:36;;;;;;;12.98;11.75;;;;;;;23.34;74.27;99650.53;5051308;28;20436;-76
2023/06/08 04:40:03;;;;;;;15.38;13.82;;;;;;;23.03;74.62;99647.47;5051402;28;20033;-76
2023/06/08 04:42:29;;;;;;;14.55;13.10;;;;;;;23.11;75.41;99677.59;5050807;28;20037;-76
2023/06/08 04:44:59;;;;;;;12.82;11.70;;;;;;;23.51;74.86;99678.09;5051341;28;20469;-76
2023/06/08 04:47:25;;;;;;;13.40;12.30;;;;;;;24.29;71.92;99659.53;5050981;28;20029;-76
2023/06/08 04:49:51;;;;;;;13.55;12.25;;;;;;;25.57;68.20;99659.16;5054484;28;20361;-76
2023/06/08 04:52:19;;;;;;;13.07;11.98;;;;;;;26.57;65.40;99683.69;5054914;28;20128;-76
2023/06/08 04:54:46;;;;;;;13.98;12.65;;;;;;;26.76;64.13;99661.06;5054884;28;20021;-76
2023/06/08 04:57:15;;;;;;;12.02;10.82;;;;;;;26.52;64.68;99675.34;5054779;28;20068;-76
2023/06/08 04:59:40;;;;;;;13.25;12.05;;;;;;;25.95;65.75;99655.97;5054332;28;20025;-76
2023/06/08 05:02:06;;;;;;;12.90;11.77;;;;;;;25.54;67.20;99669.38;5054877;28;20059;-76
2023/06/08 05:04:31;;;;;;;12.10;11.00;;;;;;;25.26;67.72;99656.34;5054623;28;20385;-76
2023/06/08 05:06:56;;;;;;;15.07;12.85;;;;;;;25.44;67.60;99679.34;5054528;28;20059;-76
2023/06/08 05:09:22;;;;;;;12.50;11.30;;;;;;;25.83;66.47;99676.84;5054501;28;20032;-76
2023/06/08 05:11:48;;;;;;;13.25;12.15;;;;;;;26.76;63.53;99661.06;5054645;28;20035;-76
2023/06/08 05:14:13;;;;;;;12.57;11.48;;;;;;;27.76;60.98;99666.34;5054471;28;20029;-76
2023/06/08 05:16:38;;;;;;;12.43;11.32;;;;;;;28.37;59.65;99676.13;5054103;28;20029;-76
2023/06/08 05:19:07;;;;;;;12.27;11.27;;;;;;;28.06;59.56;99664.56;5054430;28;20094;-76
2023/06/08 05:21:33;;;;;;;12.75;11.45;;;;;;;27.63;61.00;99679.50;5054160;28;20037;-76
2023/06/08 05:23:58;;;;;;;13.35;12.05;;;;;;;27.14;62.28;99679.91;5054266;28;20048;-76
2023/06/08 05:26:24;;;;;;;12.60;11.45;;;;;;;26.90;62.86;99685.34;5054119;28;20029;-76
2023/06/08 05:28:49;;;;;;;11.90;10.80;;;;;;;26.92;62.86;99667.28;5054236;28;20104;-76
2023/06/08 05:31:14;;;;;;;13.52;12.15;;;;;;;27.45;61.98;99687.84;5054364;28;20115;-76
2023/06/08 05:33:40;;;;;;;13.77;12.43;;;;;;;28.18;59.16;99658.72;5054030;28;20061;-76
2023/06/08 05:36:06;;;;;;;13.32;12.13;;;;;;;29.18;57.18;99677.72;5054284;28;20095;-76
2023/06/08 05:38:32;;;;;;;14.10;12.70;;;;;;;29.37;55.96;99691.50;5053865;28;20036;-76
2023/06/08 05:40:57;;;;;;;14.65;13.25;;;;;;;28.66;57.45;99684.13;5054018;28;20033;-76
2023/06/08 05:43:23;;;;;;;12.00;10.98;;;;;;;27.77;59.37;99683.25;5053640;28;20021;-76
2023/06/08 05:45:48;;;;;;;12.13;11.02;;;;;;;27.24;60.64;99663.59;5053781;28;20029;-76
2023/06/08 05:48:13;;;;;;;13.27;12.00;;;;;;;26.88;61.54;99656.13;5053756;28;20543;-76
2023/06/08 05:50:39;;;;;;;12.95;11.65;;;;;;;26.68;62.75;99650.41;5053133;28;20116;-76
2023/06/08 05:53:04;;;;;;;13.45;12.25;;;;;;;26.97;62.59;99671.13;5053709;28;20021;-76
2023/06/08 05:55:30;;;;;;;14.57;13.07;;;;;;;27.10;62.70;99660.69;5053473;28;20041;-76
2023/06/08 05:57:56;;;;;;;11.35;10.35;;;;;;;27.25;61.47;99663.41;5053578;28;20028;-76
2023/06/08 06:00:22;;;;;;;14.40;11.75;;;;;;;27.29;61.36;99672.75;5053150;28;20058;-76
2023/06/08 06:02:47;;;;;;;12.38;11.20;;;;;;;27.03;62.07;99651.69;5053782;28;20036;-76
2023/06/08 06:05:13;;;;;;;12.00;10.88;;;;;;;27.31;62.00;99656.53;5053890;28;20058;-76
2023/06/08 06:07:38;;;;;;;13.15;11.93;;;;;;;27.60;60.92;99658.44;5053230;28;20021;-76
2023/06/08 06:10:05;;;;;;;11.52;10.50;;;;;;;27.93;60.78;99667.03;5053323;28;20477;-76
2023/06/08 06:12:30;;;;;;;9.88;9.00;;;;;;;28.18;59.55;99666.75;5053087;28;20033;-76
2023/06/08 06:14:56;;;;;;;10.85;9.93;;;;;;;28.35;58.96;99663.72;5053252;28;20040;-76
2023/06/08 06:17:22;;;;;;;10.73;9.82;;;;;;;28.69;58.11;99683.75;5053487;28;20418;-76
2023/06/08 06:19:48;;;;;;;10.50;9.60;;;;;;;28.91;57.89;99652.47;5053374;28;20377;-76
2023/06/08 06:22:13;;;;;;;10.13;9.10;;;;;;;29.50;56.60;99665.66;5053221;28;20021;-76
2023/06/08 06:24:39;;;;;;;9.52;8.63;;;;;;;30.12;54.79;99693.56;5052838;28;20522;-77
2023/06/08 06:27:08;;;;;;;10.75;9.60;;;;;;;30.70;53.84;99677.16;5053084;28;20024;-76
2023/06/08 06:29:33;;;;;;;10.32;9.43;;;;;;;32.02;52.52;99687.31;5052759;28;20033;-76
2023/06/08 06:31:59;;;;;;;11.45;9.70;;;;;;;33.75;49.71;99693.56;5053168;28;20123;-77
2023/06/08 06:34:24;;;;;;;8.90;8.13;;;;;;;35.68;46.72;99680.34;5052499;28;20494;-77
2023/06/08 06:36:50;;;;;;;8.68;7.97;;;;;;;37.25;44.00;99684.72;5052881;28;20061;-77
2023/06/08 06:39:17;;;;;;;8.93;8.15;;;;;;;38.44;41.72;99678.13;5052837;28;20032;-77
2023/06/08 06:41:42;;;;;;;9.02;8.20;;;;;;;39.41;41.09;99669.09;5052616;28;20056;-77
2023/06/08 06:44:08;;;;;;;8.30;7.60;;;;;;;40.44;39.43;99662.34;5052615;28;20029;-77
2023/06/08 06:46:33;;;;;;;9.27;8.23;;;;;;;41.26;38.42;99668.84;5052734;28;20472;-77
2023/06/08 06:48:59;;;;;;;8.70;8.00;;;;;;;42.08;37.65;99666.84;5052850;28;20029;-77
2023/06/08 06:51:25;;;;;;;8.10;7.50;;;;;;;42.89;36.64;99672.25;5052459;28;20472;-77
2023/06/08 06:53:50;;;;;;;9.20;8.32;;;;;;;43.51;35.79;99668.78;5052706;28;20033;-77
2023/06/08 06:56:15;;;;;;;8.40;7.70;;;;;;;44.06;34.90;99665.75;5052507;28;20060;-77
2023/06/08 06:58:46;;;;;;;8.63;7.85;;;;;;;44.44;34.75;99663.91;5051903;28;20029;-77
2023/06/08 07:01:12;;;;;;;8.15;7.55;;;;;;;44.60;34.70;99672.78;5052658;28;20043;-77
2023/06/08 07:03:40;;;;;;;8.38;7.68;;;;;;;44.94;34.42;99667.06;5052403;28;20025;-77
2023/06/08 07:06:06;;;;;;;8.15;7.38;;;;;;;45.24;33.72;99665.78;5052449;28;20113;-78
2023/06/08 07:08:32;;;;;;;8.25;7.50;;;;;;;45.41;33.47;99668.00;5052143;28;20087;-77
2023/06/08 07:10:58;;;;;;;8.43;7.63;;;;;;;44.75;32.72;99661.56;5051816;28;20021;-77
2023/06/08 07:13:23;;;;;;;8.55;7.72;;;;;;;44.34;33.68;99674.25;5052426;28;20029;-77
2023/06/08 07:15:48;;;;;;;8.93;7.85;;;;;;;43.97;33.98;99667.50;5051948;28;20032;-77
2023/06/08 07:18:13;;;;;;;7.80;7.20;;;;;;;44.58;33.53;99673.06;5052544;28;20036;-77
2023/06/08 07:20:39;;;;;;;8.05;7.35;;;;;;;45.12;33.63;99681.94;5052007;28;20021;-76
2023/06/08 07:23:04;;;;;;;7.97;7.38;;;;;;;45.21;32.91;99682.88;5052311;28;20032;-77
2023/06/08 07:25:30;;;;;;;8.50;7.18;;;;;;;45.43;32.88;99670.44;5051517;28;20032;-77
2023/06/08 07:27:55;;;;;;;8.63;7.30;;;;;;;45.71;33.11;99676.81;5051643;28;20441;-77
2023/06/08 07:30:20;;;;;;;7.00;6.50;;;;;;;45.24;33.08;99667.72;5051903;28;20021;-77
2023/06/08 07:32:46;;;;;;;7.32;6.82;;;;;;;45.86;32.24;99682.06;5051424;28;20035;-78
2023/06/08 07:35:11;;;;;;;7.95;7.45;;;;;;;46.07;32.19;99678.91;5051981;28;20021;-78
2023/06/08 07:37:36;;;;;;;7.97;7.28;;;;;;;46.15;31.95;99675.44;5051639;28;20120;-78
2023/06/08 07:40:07;;;;;;;7.68;7.05;;;;;;;45.88;31.49;99671.53;5051740;28;20025;-78
2023/06/08 07:42:32;;;;;;;7.32;6.82;;;;;;;46.36;31.88;99679.41;5051288;28;20032;-78
2023/06/08 07:44:58;;;;;;;7.57;6.97;;;;;;;46.38;31.51;99663.38;5051494;28;20025;-77
2023/06/08 07:47:23;;;;;;;7.28;6.55;;;;;;;46.49;31.81;99662.03;5051682;28;20595;-78
2023/06/08 07:49:48;;;;;;;7.80;7.03;;;;;;;46.34;31.06;99672.59;5051639;28;20025;-78
2023/06/08 07:52:14;;;;;;;7.22;6.63;;;;;;;45.59;31.46;99636.03;5051714;28;20037;-77
2023/06/08 07:54:39;;;;;;;7.60;7.10;;;;;;;45.51;31.24;99658.72;5051515;28;20021;-77
2023/06/08 07:57:05;;;;;;;7.22;6.72;;;;;;;44.45;31.23;99649.06;5051470;28;20468;-77
2023/06/08 07:59:30;;;;;;;6.70;6.10;;;;;;;44.22;32.12;99648.00;5051342;28;20021;-77
2023/06/08 08:01:55;;;;;;;7.80;7.20;;;;;;;42.77;32.13;99670.69;5051678;28;20036;-77
2023/06/08 08:04:21;;;;;;;6.93;5.72;;;;;;;40.56;34.30;99657.50;5051908;28;20029;-77
2023/06/08 08:06:46;;;;;;;6.57;6.00;;;;;;;38.53;35.97;99663.00;5051430;28;20154;-77
2023/06/08 08:09:11;;;;;;;6.53;6.03;;;;;;;36.62;38.71;99662.09;5051180;28;20116;-77
2023/06/08 08:11:37;;;;;;;7.65;6.93;;;;;;;35.19;41.16;99628.22;5051161;28;20106;-76
2023/06/08 08:14:09;;;;;;;6.88;6.32;;;;;;;34.20;42.57;99647.38;5051643;28;20045;-75
2023/06/08 08:16:34;;;;;;;8.35;7.55;;;;;;;33.65;43.97;99650.00;5051240;28;20096;-75
2023/06/08 08:19:00;;;;;;;8.32;7.53;;;;;;;32.99;45.11;99626.19;5051688;28;20028;-75
2023/06/08 08:21:25;;;;;;;7.55;6.95;;;;;;;32.90;45.24;99641.78;5051424;28;20037;-75
2023/06/08 08:23:51;;;;;;;7.65;7.00;;;;;;;32.67;45.77;99645.03;5052788;28;20376;-75
2023/06/08 08:26:16;;;;;;;7.55;6.85;;;;;;;32.32;45.74;99641.00;5055462;28;20098;-75
2023/06/08 08:28:44;;;;;;;8.00;7.40;;;;;;;31.83;46.34;99612.72;5055031;28;20114;-75
2023/06/08 08:31:10;;;;;;;7.30;6.60;;;;;;;31.60;45.51;99634.72;5055332;28;20082;-75
2023/06/08 08:33:36;;;;;;;7.65;6.78;;;;;;;31.41;46.89;99652.53;5054890;28;20128;-75
2023/06/08 08:36:01;;;;;;;7.15;6.55;;;;;;;30.81;46.94;99637.09;5055189;28;20035;-75
2023/06/08 08:38:27;;;;;;;7.78;7.18;;;;;;;30.75;47.12;99634.38;5054762;28;20083;-75
2023/06/08 08:40:55;;;;;;;7.93;7.03;;;;;;;30.60;48.38;99644.47;5054630;28;20481;-75
2023/06/08 08:43:34;;;;;;;8.05;7.35;;;;;;;30.16;48.06;99610.78;5055096;28;20040;-75
2023/06/08 08:46:01;;;;;;;6.45;5.85;;;;;;;29.87;47.37;99625.25;5055084;28;20067;-75
2023/06/08 08:48:29;;;;;;;8.35;7.25;;;;;;;29.33;48.37;99624.84;5054793;28;20543;-75
2023/06/08 08:50:57;;;;;;;7.35;6.22;;;;;;;28.80;46.90;99616.25;5054553;28;20071;-75
2023/06/08 08:53:30;;;;;;;7.75;7.05;;;;;;;28.60;48.58;99632.09;5054959;28;20024;-75
2023/06/08 08:55:59;;;;;;;7.47;6.55;;;;;;;28.55;49.14;99629.16;5054935;28;20431;-76
2023/06/08 08:58:25;;;;;;;7.30;6.60;;;;;;;28.51;48.88;99637.78;5054710;28;20107;-76
2023/06/08 09:00:51;;;;;;;6.05;5.53;;;;;;;28.32;49.06;99631.13;5054385;28;20483;-76
2023/06/08 09:03:17;;;;;;;7.00;6.30;;;;;;;27.89;50.09;99625.56;5054661;28;20041;-76
2023/06/08 09:05:45;;;;;;;7.35;6.50;;;;;;;27.77;50.50;99622.53;5054238;28;20103;-76
2023/06/08 09:08:11;;;;;;;6.43;5.90;;;;;;;27.95;49.83;99634.72;5054695;28;20027;-76
2023/06/08 09:10:37;;;;;;;6.85;6.13;;;;;;;28.15;48.76;99635.00;5054489;28;20111;-76
2023/06/08 09:13:02;;;;;;;7.35;6.60;;;;;;;28.19;49.40;99626.44;5054574;28;20033;-76
2023/06/08 09:15:30;;;;;;;7.95;5.68;;;;;;;28.05;47.92;99629.94;5054483;28;20132;-76
2023/06/08 09:17:57;;;;;;;6.57;5.60;;;;;;;27.92;47.93;99616.34;5054152;28;20051;-77
2023/06/08 09:20:27;;;;;;;5.10;4.63;;;;;;;28.00;46.97;99638.50;5054300;28;20442;-77
2023/06/08 09:22:53;;;;;;;5.55;4.18;;;;;;;27.91;45.89;99622.72;5054144;28;20471;-75
2023/06/08 09:25:32;;;;;;;5.32;4.68;;;;;;;27.70;45.76;99610.03;5054186;28;20124;-75
2023/06/08 09:28:16;;;;;;;5.03;4.63;;;;;;;27.87;46.37;99640.19;5054129;28;20515;-75
2023/06/08 09:30:44;;;;;;;5.10;4.07;;;;;;;27.70;45.81;99631.44;5053804;28;20040;-75
2023/06/08 09:33:26;;;;;;;5.97;5.43;;;;;;;27.69;46.08;99651.19;5053954;28;20048;-75
2023/06/08 09:35:57;;;;;;;8.40;6.30;;;;;;;27.53;47.57;99644.97;5053453;28;20116;-75
2023/06/08 09:38:25;;;;;;;5.50;4.95;;;;;;;27.50;46.92;99641.81;5053935;28;20457;-75
2023/06/08 09:40:51;;;;;;;5.15;4.65;;;;;;;27.38;47.72;99640.59;5053586;28;20049;-75
2023/06/08 09:43:34;;;;;;;5.15;4.70;;;;;;;27.23;47.53;99640.56;5054003;28;20108;-75
2023/06/08 09:45:59;;;;;;;5.80;5.28;;;;;;;27.10;48.34;99611.75;5053946;28;20074;-75
2023/06/08 09:48:24;;;;;;;5.93;5.43;;;;;;;27.31;48.52;99625.28;5053501;28;20037;-75
2023/06/08 09:51:01;;;;;;;5.50;4.93;;;;;;;27.64;48.67;99624.97;5053993;28;20029;-75
2023/06/08 09:53:28;;;;;;;5.90;5.10;;;;;;;27.94;48.34;99614.31;5053686;28;20033;-75
2023/06/08 09:55:54;;;;;;;6.55;5.93;;;;;;;28.05;47.72;99595.13;5053656;28;20477;-75
2023/06/08 09:58:25;;;;;;;6.65;5.05;;;;;;;27.99;47.22;99582.50;5053681;28;20032;-75
2023/06/08 10:00:55;;;;;;;6.30;5.38;;;;;;;28.22;47.83;99609.13;5053336;28;20081;-75
2023/06/08 10:03:28;;;;;;;5.97;5.47;;;;;;;28.29;47.04;99613.56;5053445;28;20091;-75
2023/06/08 10:05:57;;;;;;;5.85;5.35;;;;;;;28.08;47.06;99605.47;5053163;28;20032;-75
2023/06/08 10:08:26;;;;;;;5.95;5.45;;;;;;;28.00;47.20;99581.47;5053771;28;20036;-75
2023/06/08 10:10:51;;;;;;;6.82;5.30;;;;;;;28.10;46.88;99573.97;5053231;28;20025;-75
2023/06/08 10:13:17;;;;;;;6.60;5.65;;;;;;;28.10;47.56;99576.66;5053370;28;20032;-75
2023/06/08 10:15:44;;;;;;;6.25;5.65;;;;;;;28.08;48.09;99595.59;5053089;28;20059;-75
2023/06/08 10:18:10;;;;;;;6.85;6.18;;;;;;;28.00;48.18;99581.47;5051920;28;20131;-75
2023/06/08 10:20:36;;;;;;;6.15;5.60;;;;;;;27.82;48.17;99565.78;5052760;28;20017;-75
2023/06/08 10:23:04;;;;;;;5.82;5.35;;;;;;;27.90;47.88;99575.56;5053066;28;20120;-75
2023/06/08 10:25:30;;;;;;;6.70;6.10;;;;;;;27.70;48.37;99546.66;5053190;28;20025;-75
2023/06/08 10:28:03;;;;;;;6.68;5.97;;;;;;;27.88;48.04;99565.03;5052835;28;20071;-75
2023/06/08 10:30:39;;;;;;;7.90;6.40;;;;;;;27.81;48.64;99564.97;5053263;28;20644;-75
2023/06/08 10:33:08;;;;;;;7.35;5.80;;;;;;;27.95;49.25;99582.03;5052644;28;20060;-75
2023/06/08 10:35:34;;;;;;;6.68;6.07;;;;;;;28.06;48.69;99581.56;5053058;28;20028;-75
2023/06/08 10:38:14;;;;;;;6.53;5.80;;;;;;;28.05;48.61;99555.78;5052545;28;20107;-75
2023/06/08 10:40:42;;;;;;;7.13;6.45;;;;;;;28.47;48.64;99578.38;5052251;28;20021;-75
2023/06/08 10:43:08;;;;;;;6.35;5.85;;;;;;;28.51;47.07;99581.50;5052734;28;20381;-74
2023/06/08 10:45:40;;;;;;;7.25;5.68;;;;;;;28.56;46.92;99584.44;5051887;28;20440;-75
2023/06/08 10:48:09;;;;;;;6.67;6.00;;;;;;;28.37;46.66;99545.69;5051396;28;20377;-75
2023/06/08 10:50:38;;;;;;;6.40;5.50;;;;;;;28.42;46.80;99556.69;5052694;28;20399;-75
2023/06/08 10:53:04;;;;;;;6.47;5.88;;;;;;;28.48;47.18;99566.63;5052214;28;20358;-75
2023/06/08 10:55:30;;;;;;;6.05;5.55;;;;;;;28.12;46.57;99550.53;5052426;28;20039;-75
2023/06/08 10:58:20;;;;;;;6.32;5.80;;;;;;;28.10;46.36;99549.88;5052169;28;20116;-75
2023/06/08 11:01:04;;;;;;;6.20;5.63;;;;;;;28.34;47.07;99562.13;5052149;28;20043;-75
2023/06/08 11:03:46;;;;;;;6.20;5.70;;;;;;;28.36;47.21;99546.72;5052523;28;20022;-74
2023/06/08 11:06:15;;;;;;;6.72;6.05;;;;;;;28.21;47.79;99543.22;5052276;28;20063;-75
2023/06/08 11:08:41;;;;;;;7.90;5.43;;;;;;;28.27;48.16;99558.53;5051867;28;20069;-75
2023/06/08 11:11:09;;;;;;;5.72;5.20;;;;;;;28.30;47.58;99553.63;5052123;28;20052;-75
2023/06/08 11:13:35;;;;;;;6.30;5.20;;;;;;;28.09;47.49;99562.44;5052010;28;20025;-75
2023/06/08 11:16:01;;;;;;;6.18;5.40;;;;;;;27.85;48.27;99550.19;5051826;28;20060;-75
2023/06/08 11:18:29;;;;;;;5.40;4.80;;;;;;;27.67;48.60;99533.63;5052017;28;20025;-75
2023/06/08 11:20:58;;;;;;;5.53;4.88;;;;;;;27.79;49.09;99553.59;5051551;28;20090;-74
2023/06/08 11:23:24;;;;;;;5.95;5.45;;;;;;;27.74;49.16;99539.13;5052146;28;20025;-75
2023/06/08 11:25:49;;;;;;;6.13;5.43;;;;;;;27.71;48.10;99544.81;5052064;28;20044;-75